createdAt,value
2017-12-05T00:01:52.507Z,85.40
2017-12-05T00:04:18.712Z,85.10
2017-12-05T00:06:44.937Z,84.80
2017-12-05T00:09:11.152Z,84.90
2017-12-05T00:11:37.375Z,84.80
2017-12-05T00:14:03.571Z,84.90
2017-12-05T00:16:29.836Z,84.30
2017-12-05T00:18:56.087Z,84.80
2017-12-05T00:21:22.386Z,84.20
2017-12-05T00:23:48.972Z,84.20
2017-12-05T00:26:15.216Z,84.20
2017-12-05T00:28:41.497Z,83.90
2017-12-05T00:31:07.722Z,84.00
2017-12-05T00:33:33.992Z,84.20
2017-12-05T00:36:00.211Z,84.00
2017-12-05T00:38:26.439Z,84.00
2017-12-05T00:40:52.690Z,84.10
2017-12-05T00:43:18.990Z,84.40
2017-12-05T00:45:45.315Z,84.60
2017-12-05T00:48:11.584Z,85.30
2017-12-05T00:50:37.804Z,85.50
2017-12-05T00:53:04.048Z,85.80
2017-12-05T00:55:30.659Z,85.50
2017-12-05T00:57:56.900Z,85.50
2017-12-05T01:00:23.100Z,85.60
2017-12-05T01:02:49.341Z,84.70
2017-12-05T01:05:15.580Z,84.80
2017-12-05T01:07:41.810Z,84.20
2017-12-05T01:10:08.035Z,83.60
2017-12-05T01:12:34.222Z,83.90
2017-12-05T01:15:00.407Z,84.00
2017-12-05T01:17:26.997Z,84.20
2017-12-05T01:19:53.248Z,84.20
2017-12-05T01:22:19.465Z,83.90
2017-12-05T01:24:45.692Z,83.80
2017-12-05T01:27:11.912Z,83.80
2017-12-05T01:29:38.135Z,83.90
2017-12-05T01:32:04.327Z,83.70
2017-12-05T01:34:30.895Z,83.20
2017-12-05T01:36:57.113Z,83.20
2017-12-05T01:39:23.367Z,82.90
2017-12-05T01:41:49.588Z,82.80
2017-12-05T01:44:15.806Z,82.90
2017-12-05T01:46:42.062Z,82.90
2017-12-05T01:49:08.277Z,82.80
2017-12-05T01:51:34.542Z,83.30
2017-12-05T01:54:01.156Z,82.50
2017-12-05T01:56:27.415Z,82.50
2017-12-05T01:58:54.103Z,82.70
2017-12-05T02:01:20.316Z,82.70
2017-12-05T02:03:46.572Z,83.00
2017-12-05T02:06:12.801Z,82.40
2017-12-05T02:08:39.036Z,83.00
2017-12-05T02:11:05.311Z,83.80
2017-12-05T02:13:31.543Z,83.70
2017-12-05T02:15:57.824Z,84.40
2017-12-05T02:18:24.076Z,84.90
2017-12-05T02:20:50.726Z,84.80
2017-12-05T02:23:17.329Z,84.40
2017-12-05T02:25:43.558Z,84.40
2017-12-05T02:28:09.796Z,84.20
2017-12-05T02:30:36.027Z,84.00
2017-12-05T02:33:02.263Z,83.90
2017-12-05T02:35:28.849Z,84.10
2017-12-05T02:37:55.061Z,84.10
2017-12-05T02:40:21.345Z,84.00
2017-12-05T02:42:47.551Z,84.10
2017-12-05T02:45:13.776Z,84.10
2017-12-05T02:47:40.012Z,83.60
2017-12-05T02:50:06.261Z,84.10
2017-12-05T02:52:32.858Z,83.40
2017-12-05T02:54:59.115Z,83.40
2017-12-05T02:57:25.372Z,83.80
2017-12-05T02:59:51.623Z,83.50
2017-12-05T03:02:18.033Z,83.60
2017-12-05T03:04:44.656Z,83.80
2017-12-05T03:07:11.287Z,84.00
2017-12-05T03:09:37.504Z,84.00
2017-12-05T03:12:03.757Z,83.80
2017-12-05T03:14:30.389Z,83.40
2017-12-05T03:16:56.984Z,83.30
2017-12-05T03:19:23.218Z,83.30
2017-12-05T03:21:49.482Z,82.90
2017-12-05T03:24:16.048Z,82.20
2017-12-05T03:26:42.297Z,82.20
2017-12-05T03:29:08.544Z,82.20
2017-12-05T03:31:34.793Z,82.10
2017-12-05T03:34:01.051Z,82.30
2017-12-05T03:36:27.280Z,81.90
2017-12-05T03:38:53.497Z,81.50
2017-12-05T03:41:20.088Z,81.80
2017-12-05T03:43:46.358Z,81.80
2017-12-05T03:46:12.948Z,81.80
2017-12-05T03:48:39.175Z,81.80
2017-12-05T03:51:05.409Z,81.90
2017-12-05T03:53:31.618Z,81.90
2017-12-05T03:55:57.809Z,82.10
2017-12-05T03:58:23.995Z,82.90
2017-12-05T04:00:50.223Z,82.50
2017-12-05T04:03:16.469Z,83.30
2017-12-05T04:05:42.709Z,83.80
2017-12-05T04:08:09.316Z,84.40
2017-12-05T04:10:35.541Z,84.30
2017-12-05T04:13:01.745Z,83.90
2017-12-05T04:15:27.948Z,83.80
2017-12-05T04:17:54.173Z,84.30
2017-12-05T04:20:20.407Z,84.40
2017-12-05T04:22:46.625Z,84.40
2017-12-05T04:25:12.835Z,84.70
2017-12-05T04:27:39.022Z,84.60
2017-12-05T04:30:05.228Z,84.50
2017-12-05T04:32:31.478Z,83.50
2017-12-05T04:34:57.721Z,83.20
2017-12-05T04:37:23.966Z,83.50
2017-12-05T04:39:50.201Z,82.60
2017-12-05T04:42:16.466Z,82.50
2017-12-05T04:44:42.699Z,82.90
2017-12-05T04:47:08.944Z,83.10
2017-12-05T04:49:35.216Z,83.50
2017-12-05T04:52:01.471Z,83.40
2017-12-05T04:54:27.745Z,83.50
2017-12-05T04:56:53.995Z,83.50
2017-12-05T04:59:20.262Z,83.50
2017-12-05T05:01:46.823Z,83.90
2017-12-05T05:04:13.077Z,83.30
2017-12-05T05:06:39.337Z,83.20
2017-12-05T05:09:05.999Z,83.30
2017-12-05T05:11:32.602Z,83.20
2017-12-05T05:13:59.220Z,82.90
2017-12-05T05:16:25.477Z,82.90
2017-12-05T05:18:52.088Z,83.00
2017-12-05T05:21:18.319Z,83.00
2017-12-05T05:23:44.620Z,83.60
2017-12-05T05:26:10.857Z,84.00
2017-12-05T05:28:37.113Z,84.40
2017-12-05T05:31:03.331Z,83.90
2017-12-05T05:33:29.567Z,83.90
2017-12-05T05:35:55.855Z,83.80
2017-12-05T05:38:22.077Z,83.50
2017-12-05T05:40:48.375Z,84.30
2017-12-05T05:43:15.048Z,83.70
2017-12-05T05:45:41.309Z,83.70
2017-12-05T05:48:07.555Z,83.90
2017-12-05T05:50:33.760Z,84.20
2017-12-05T05:52:59.955Z,84.20
2017-12-05T05:55:26.201Z,84.00
2017-12-05T05:57:52.427Z,84.20
2017-12-05T06:00:18.643Z,84.60
2017-12-05T06:02:44.866Z,84.40
2017-12-05T06:05:11.079Z,85.30
2017-12-05T06:07:37.285Z,85.30
2017-12-05T06:10:03.861Z,85.20
2017-12-05T06:12:30.103Z,85.10
2017-12-05T06:14:56.319Z,85.00
2017-12-05T06:17:22.503Z,84.70
2017-12-05T06:19:48.753Z,84.40
2017-12-05T06:22:14.993Z,84.30
2017-12-05T06:24:41.215Z,84.30
2017-12-05T06:27:07.410Z,85.00
2017-12-05T06:29:34.060Z,85.10
2017-12-05T06:32:00.644Z,85.20
2017-12-05T06:34:26.884Z,85.20
2017-12-05T06:36:53.074Z,84.20
2017-12-05T06:39:19.271Z,83.80
2017-12-05T06:41:45.906Z,83.60
2017-12-05T06:44:12.500Z,83.40
2017-12-05T06:46:38.732Z,83.50
2017-12-05T06:49:04.952Z,84.00
2017-12-05T06:51:31.177Z,84.20
2017-12-05T06:53:57.408Z,84.50
2017-12-05T06:56:23.635Z,83.90
2017-12-05T06:58:49.888Z,84.00
2017-12-05T07:01:16.140Z,84.10
2017-12-05T07:03:42.410Z,84.60
2017-12-05T07:06:08.663Z,84.50
2017-12-05T07:08:34.913Z,85.70
2017-12-05T07:11:01.172Z,86.20
2017-12-05T07:13:27.413Z,85.70
2017-12-05T07:15:53.681Z,86.20
2017-12-05T07:18:19.937Z,86.50
2017-12-05T07:20:46.548Z,86.50
2017-12-05T07:23:12.777Z,86.50
2017-12-05T07:25:39.033Z,86.80
2017-12-05T07:28:05.670Z,85.90
2017-12-05T07:30:32.304Z,85.70
2017-12-05T07:32:58.948Z,85.80
2017-12-05T07:35:25.607Z,85.00
2017-12-05T07:37:52.757Z,85.00
2017-12-05T07:40:19.013Z,85.50
2017-12-05T07:42:45.275Z,86.10
2017-12-05T07:45:11.539Z,86.00
2017-12-05T07:47:37.785Z,85.90
2017-12-05T07:50:04.081Z,85.50
2017-12-05T07:52:30.299Z,85.70
2017-12-05T07:54:56.536Z,86.40
2017-12-05T07:57:23.207Z,86.40
2017-12-05T07:59:49.473Z,86.40
2017-12-05T08:02:15.753Z,86.30
2017-12-05T08:04:41.997Z,85.60
2017-12-05T08:07:08.275Z,85.50
2017-12-05T08:09:35.520Z,85.10
2017-12-05T08:12:02.253Z,85.20
2017-12-05T08:14:28.515Z,84.80
2017-12-05T08:16:55.206Z,84.80
2017-12-05T08:19:21.457Z,84.80
2017-12-05T08:21:47.727Z,85.00
2017-12-05T08:24:13.994Z,84.70
2017-12-05T08:26:40.220Z,84.30
2017-12-05T08:29:06.493Z,84.70
2017-12-05T08:31:33.142Z,85.50
2017-12-05T08:33:59.769Z,84.90
2017-12-05T08:36:26.429Z,85.00
2017-12-05T08:38:52.681Z,85.00
2017-12-05T08:41:18.942Z,84.00
2017-12-05T08:43:45.191Z,84.50
2017-12-05T08:46:11.837Z,84.60
2017-12-05T08:48:38.129Z,84.70
2017-12-05T08:51:04.397Z,85.10
2017-12-05T08:53:30.671Z,84.00
2017-12-05T08:55:56.981Z,84.40
2017-12-05T08:58:23.228Z,83.50
2017-12-05T09:00:49.515Z,82.90
2017-12-05T09:03:15.769Z,82.80
2017-12-05T09:05:42.030Z,83.50
2017-12-05T09:08:08.259Z,83.40
2017-12-05T09:10:34.530Z,84.20
2017-12-05T09:13:00.774Z,84.20
2017-12-05T09:15:26.998Z,84.20
2017-12-05T09:17:53.324Z,83.40
2017-12-05T09:20:19.595Z,84.10
2017-12-05T09:22:45.902Z,83.40
2017-12-05T09:25:12.158Z,82.50
2017-12-05T09:27:38.405Z,82.40
2017-12-05T09:30:04.639Z,81.50
2017-12-05T09:32:31.279Z,79.70
2017-12-05T09:34:57.888Z,80.40
2017-12-05T09:37:24.143Z,80.30
2017-12-05T09:39:50.779Z,80.40
2017-12-05T09:42:17.379Z,80.50
2017-12-05T09:44:43.639Z,80.50
2017-12-05T09:47:10.264Z,79.10
2017-12-05T09:49:36.525Z,79.10
2017-12-05T09:52:03.154Z,78.10
2017-12-05T09:54:29.853Z,77.20
2017-12-05T09:56:56.113Z,77.20
2017-12-05T09:59:22.706Z,77.20
2017-12-05T10:01:48.977Z,77.20
2017-12-05T10:04:15.220Z,78.20
2017-12-05T10:06:41.674Z,78.30
2017-12-05T10:09:07.892Z,76.80
2017-12-05T10:11:34.130Z,76.90
2017-12-05T10:14:00.387Z,75.90
2017-12-05T10:16:26.725Z,75.30
2017-12-05T10:18:52.967Z,75.40
2017-12-05T10:21:19.285Z,75.20
2017-12-05T10:23:45.533Z,74.60
2017-12-05T10:26:16.132Z,74.20
2017-12-05T10:28:47.710Z,74.40
2017-12-05T10:31:13.951Z,74.20
2017-12-05T10:33:40.206Z,72.90
2017-12-05T10:36:06.444Z,73.60
2017-12-05T10:38:32.708Z,72.90
2017-12-05T10:40:58.962Z,72.00
2017-12-05T10:43:25.206Z,72.40
2017-12-05T10:45:52.537Z,73.20
2017-12-05T10:48:18.781Z,73.20
2017-12-05T10:50:45.029Z,72.20
2017-12-05T10:53:11.306Z,72.90
2017-12-05T10:55:37.564Z,73.30
2017-12-05T10:58:04.207Z,71.60
2017-12-05T11:00:31.573Z,70.70
2017-12-05T11:02:58.169Z,70.80
2017-12-05T11:05:24.429Z,70.80
2017-12-05T11:07:51.675Z,70.10
2017-12-05T11:10:17.957Z,69.80
2017-12-05T11:12:44.208Z,66.80
2017-12-05T11:15:10.501Z,65.10
2017-12-05T11:17:36.839Z,62.30
2017-12-05T11:20:03.164Z,61.90
2017-12-05T11:22:29.436Z,60.40
2017-12-05T11:24:55.644Z,58.90
2017-12-05T11:27:21.946Z,58.70
2017-12-05T11:29:48.174Z,59.50
2017-12-05T11:32:14.433Z,62.00
2017-12-05T11:34:40.689Z,63.50
2017-12-05T11:37:06.976Z,63.90
2017-12-05T11:39:33.243Z,63.40
2017-12-05T11:41:59.537Z,63.20
2017-12-05T11:44:25.806Z,63.60
2017-12-05T11:46:52.083Z,64.30
2017-12-05T11:49:18.330Z,64.10
2017-12-05T11:51:44.603Z,63.30
2017-12-05T11:54:10.857Z,62.50
2017-12-05T11:56:37.098Z,62.50
2017-12-05T11:59:03.377Z,61.80
2017-12-05T12:01:30.011Z,60.80
2017-12-05T12:03:56.240Z,60.80
2017-12-05T12:06:22.569Z,61.00
2017-12-05T12:08:48.808Z,61.00
2017-12-05T12:11:15.024Z,62.60
2017-12-05T12:13:41.302Z,63.40
2017-12-05T12:16:07.503Z,64.50
2017-12-05T12:18:34.872Z,64.80
2017-12-05T12:21:01.304Z,64.80
2017-12-05T12:23:28.250Z,66.90
2017-12-05T12:25:54.480Z,68.40
2017-12-05T12:28:20.690Z,69.50
2017-12-05T12:30:47.602Z,69.50
2017-12-05T12:33:14.426Z,69.50
2017-12-05T12:35:40.639Z,69.80
2017-12-05T12:38:06.864Z,70.40
2017-12-05T12:40:33.136Z,69.30
2017-12-05T12:42:59.397Z,69.30
2017-12-05T12:45:26.662Z,70.40
2017-12-05T12:47:53.435Z,68.90
2017-12-05T12:50:19.659Z,69.90
2017-12-05T12:52:45.917Z,69.10
2017-12-05T12:55:12.166Z,69.50
2017-12-05T12:57:38.744Z,68.50
2017-12-05T13:00:04.995Z,68.50
2017-12-05T13:02:31.191Z,69.20
2017-12-05T13:04:57.406Z,68.80
2017-12-05T13:07:23.668Z,69.60
2017-12-05T13:09:49.983Z,70.80
2017-12-05T13:12:16.144Z,70.20
2017-12-05T13:14:42.344Z,71.00
2017-12-05T13:17:08.578Z,71.90
2017-12-05T13:19:34.788Z,71.20
2017-12-05T13:22:01.015Z,71.70
2017-12-05T13:24:28.040Z,72.00
2017-12-05T13:26:54.261Z,72.70
2017-12-05T13:29:20.867Z,72.30
2017-12-05T13:31:47.101Z,72.30
2017-12-05T13:34:13.382Z,72.50
2017-12-05T13:36:39.588Z,71.80
2017-12-05T13:39:05.819Z,71.40
2017-12-05T13:41:32.517Z,72.30
2017-12-05T13:43:58.787Z,72.20
2017-12-05T13:46:25.027Z,71.90
2017-12-05T13:48:51.323Z,72.40
2017-12-05T13:51:17.547Z,72.70
2017-12-05T13:53:43.772Z,72.80
2017-12-05T13:56:10.014Z,72.90
2017-12-05T13:58:36.268Z,72.90
2017-12-05T14:01:02.505Z,73.30
2017-12-05T14:03:28.781Z,73.60
2017-12-05T14:05:57.140Z,73.50
2017-12-05T14:08:24.346Z,73.40
2017-12-05T14:10:50.619Z,73.40
2017-12-05T14:13:16.854Z,73.60
2017-12-05T14:15:43.145Z,73.60
2017-12-05T14:18:09.388Z,73.50
2017-12-05T14:20:35.657Z,74.00
2017-12-05T14:23:02.131Z,74.20
2017-12-05T14:25:28.384Z,73.50
2017-12-05T14:27:54.666Z,73.30
2017-12-05T14:30:21.311Z,73.30
2017-12-05T14:32:47.541Z,73.40
2017-12-05T14:35:14.026Z,72.70
2017-12-05T14:37:40.290Z,73.40
2017-12-05T14:40:07.655Z,72.50
2017-12-05T14:42:34.347Z,72.70
2017-12-05T14:45:00.807Z,72.70
2017-12-05T14:47:27.433Z,72.80
2017-12-05T14:49:53.720Z,72.80
2017-12-05T14:52:19.973Z,73.30
2017-12-05T14:54:46.201Z,73.30
2017-12-05T14:57:12.450Z,73.20
2017-12-05T14:59:38.683Z,72.20
2017-12-05T15:02:04.917Z,72.80
2017-12-05T15:04:31.200Z,73.10
2017-12-05T15:06:58.387Z,73.10
2017-12-05T15:09:24.628Z,73.30
2017-12-05T15:11:51.883Z,74.00
2017-12-05T15:14:18.153Z,74.10
2017-12-05T15:16:44.393Z,73.90
2017-12-05T15:19:10.637Z,74.30
2017-12-05T15:21:36.906Z,74.20
2017-12-05T15:24:04.073Z,72.90
2017-12-05T15:26:30.330Z,72.90
2017-12-05T15:28:56.598Z,72.80
2017-12-05T15:31:23.251Z,72.90
2017-12-05T15:33:49.891Z,72.90
2017-12-05T15:36:16.536Z,73.30
2017-12-05T15:38:42.782Z,73.30
2017-12-05T15:41:09.027Z,73.50
2017-12-05T15:43:35.308Z,73.40
2017-12-05T15:46:01.558Z,73.10
2017-12-05T15:48:27.845Z,72.80
2017-12-05T15:50:54.071Z,73.00
2017-12-05T15:53:20.375Z,73.00
2017-12-05T15:55:46.599Z,73.10
2017-12-05T15:58:12.836Z,73.30
2017-12-05T16:00:39.095Z,73.30
2017-12-05T16:03:05.376Z,73.90
2017-12-05T16:05:31.695Z,73.50
2017-12-05T16:07:57.963Z,74.10
2017-12-05T16:10:24.224Z,74.30
2017-12-05T16:12:50.856Z,73.80
2017-12-05T16:15:17.133Z,73.80
2017-12-05T16:17:43.394Z,73.40
2017-12-05T16:20:10.654Z,73.20
2017-12-05T16:22:37.559Z,72.70
2017-12-05T16:25:03.797Z,72.70
2017-12-05T16:27:30.071Z,72.10
2017-12-05T16:29:56.722Z,73.50
2017-12-05T16:32:22.995Z,73.50
2017-12-05T16:34:49.234Z,72.80
2017-12-05T16:37:15.543Z,72.70
2017-12-05T16:39:41.839Z,72.60
2017-12-05T16:42:08.097Z,72.60
2017-12-05T16:44:34.417Z,73.00
2017-12-05T16:47:00.664Z,73.10
2017-12-05T16:49:26.984Z,73.30
2017-12-05T16:51:53.307Z,73.50
2017-12-05T16:54:19.585Z,73.60
2017-12-05T16:56:45.846Z,73.20
2017-12-05T16:59:12.073Z,73.30
2017-12-05T17:01:38.359Z,73.40
2017-12-05T17:04:05.522Z,74.00
2017-12-05T17:06:31.814Z,74.00
2017-12-05T17:08:58.117Z,73.90
2017-12-05T17:11:24.360Z,74.10
2017-12-05T17:13:50.687Z,74.50
2017-12-05T17:16:16.936Z,74.90
2017-12-05T17:18:43.278Z,74.80
2017-12-05T17:21:09.998Z,74.60
2017-12-05T17:23:36.330Z,74.60
2017-12-05T17:26:02.637Z,74.70
2017-12-05T17:28:28.881Z,74.60
2017-12-05T17:30:55.230Z,73.80
2017-12-05T17:33:21.505Z,74.30
2017-12-05T17:35:47.771Z,74.20
2017-12-05T17:38:14.044Z,73.30
2017-12-05T17:40:40.320Z,73.20
2017-12-05T17:43:06.581Z,73.40
2017-12-05T17:45:32.889Z,72.40
2017-12-05T17:47:59.182Z,71.60
2017-12-05T17:50:25.788Z,71.50
2017-12-05T17:52:52.083Z,71.50
2017-12-05T17:55:18.317Z,71.90
2017-12-05T17:57:44.608Z,72.00
2017-12-05T18:00:11.292Z,72.20
2017-12-05T18:02:37.549Z,72.20
2017-12-05T18:05:04.770Z,72.50
2017-12-05T18:07:31.036Z,72.00
2017-12-05T18:09:57.681Z,71.90
2017-12-05T18:12:24.344Z,72.80
2017-12-05T18:14:50.648Z,72.80
2017-12-05T18:17:16.971Z,72.40
2017-12-05T18:19:43.662Z,72.60
2017-12-05T18:22:09.997Z,72.50
2017-12-05T18:24:36.279Z,72.70
2017-12-05T18:27:02.985Z,73.30
2017-12-05T18:29:29.350Z,73.30
2017-12-05T18:31:56.028Z,72.80
2017-12-05T18:34:22.366Z,72.80
2017-12-05T18:36:48.646Z,72.90
2017-12-05T18:39:15.465Z,73.70
2017-12-05T18:41:41.766Z,73.70
2017-12-05T18:44:08.097Z,74.40
2017-12-05T18:46:34.466Z,74.60
2017-12-05T18:49:00.740Z,75.30
2017-12-05T18:51:28.493Z,75.50
2017-12-05T18:53:54.812Z,75.10
2017-12-05T18:56:21.064Z,75.60
2017-12-05T18:58:47.404Z,75.60
2017-12-05T19:01:14.248Z,75.30
2017-12-05T19:03:40.591Z,74.90
2017-12-05T19:06:07.012Z,75.10
2017-12-05T19:08:33.388Z,74.70
2017-12-05T19:10:59.720Z,74.80
2017-12-05T19:13:26.649Z,73.40
2017-12-05T19:15:53.034Z,73.30
2017-12-05T19:18:19.324Z,73.60
2017-12-05T19:20:45.716Z,72.80
2017-12-05T19:23:12.050Z,73.00
2017-12-05T19:25:38.399Z,73.70
2017-12-05T19:28:04.997Z,73.70
2017-12-05T19:30:31.343Z,73.40
2017-12-05T19:32:57.704Z,73.50
2017-12-05T19:35:24.049Z,73.40
2017-12-05T19:37:50.806Z,72.60
2017-12-05T19:40:18.736Z,72.50
2017-12-05T19:42:45.112Z,72.90
2017-12-05T19:45:11.417Z,73.00
2017-12-05T19:47:37.715Z,72.50
2017-12-05T19:50:04.090Z,72.20
2017-12-05T19:52:30.749Z,72.40
2017-12-05T19:54:57.067Z,72.40
2017-12-05T19:57:23.439Z,72.70
2017-12-05T19:59:49.753Z,72.20
2017-12-05T20:02:16.028Z,72.20
2017-12-05T20:04:42.482Z,72.10
2017-12-05T20:07:09.217Z,73.10
2017-12-05T20:09:35.564Z,73.10
2017-12-05T20:12:01.966Z,73.40
2017-12-05T20:14:28.759Z,74.20
2017-12-05T20:16:55.145Z,74.20
2017-12-05T20:19:22.454Z,74.80
2017-12-05T20:21:48.928Z,74.80
2017-12-05T20:24:15.269Z,74.90
2017-12-05T20:26:41.692Z,74.90
2017-12-05T20:29:08.343Z,75.60
2017-12-05T20:31:35.041Z,75.70
2017-12-05T20:34:01.415Z,75.70
2017-12-05T20:36:27.770Z,75.70
2017-12-05T20:38:54.140Z,75.10
2017-12-05T20:41:20.538Z,75.00
2017-12-05T20:43:46.899Z,74.80
2017-12-05T20:46:13.328Z,74.80
2017-12-05T20:48:40.494Z,74.40
2017-12-05T20:51:07.493Z,73.50
2017-12-05T20:53:33.780Z,73.60
2017-12-05T20:56:00.074Z,74.00
2017-12-05T20:58:26.425Z,74.20
2017-12-05T21:00:52.722Z,73.70
2017-12-05T21:03:19.123Z,73.80
2017-12-05T21:05:45.873Z,73.90
2017-12-05T21:08:12.199Z,73.90
2017-12-05T21:10:38.466Z,73.90
2017-12-05T21:13:04.765Z,74.70
2017-12-05T21:15:31.087Z,74.90
2017-12-05T21:17:58.484Z,75.20
2017-12-05T21:20:25.726Z,75.30
2017-12-05T21:22:52.084Z,75.10
2017-12-05T21:25:18.362Z,74.90
2017-12-05T21:27:44.605Z,75.50
2017-12-05T21:30:10.927Z,75.80
2017-12-05T21:32:37.223Z,76.20
2017-12-05T21:35:03.836Z,76.50
2017-12-05T21:37:30.799Z,76.50
2017-12-05T21:39:57.086Z,76.90
2017-12-05T21:42:23.350Z,77.50
2017-12-05T21:44:49.583Z,77.50
2017-12-05T21:47:15.846Z,77.30
2017-12-05T21:49:42.073Z,77.10
2017-12-05T21:52:08.337Z,77.50
2017-12-05T21:54:34.668Z,78.20
2017-12-05T21:57:01.975Z,78.20
2017-12-05T21:59:28.236Z,79.00
2017-12-05T22:01:54.526Z,79.70
2017-12-05T22:04:21.114Z,80.00
2017-12-05T22:06:47.392Z,80.00
2017-12-05T22:09:13.974Z,79.80
2017-12-05T22:11:40.217Z,79.80
2017-12-05T22:14:06.480Z,79.70
2017-12-05T22:16:33.108Z,80.30
2017-12-05T22:18:59.622Z,80.30
2017-12-05T22:21:25.895Z,80.40
2017-12-05T22:23:52.518Z,80.80
2017-12-05T22:26:18.774Z,80.80
2017-12-05T22:28:45.055Z,80.90
2017-12-05T22:31:11.303Z,81.10
2017-12-05T22:33:37.897Z,82.00
2017-12-05T22:36:04.126Z,82.00
2017-12-05T22:38:30.395Z,81.70
2017-12-05T22:40:56.981Z,81.50
2017-12-05T22:43:23.219Z,81.50
2017-12-05T22:45:49.459Z,81.20
2017-12-05T22:48:15.791Z,81.00
2017-12-05T22:50:42.053Z,81.20
2017-12-05T22:53:08.679Z,81.30
2017-12-05T22:55:34.877Z,81.30
2017-12-05T22:58:01.113Z,81.60
2017-12-05T23:00:28.257Z,81.50
2017-12-05T23:02:54.476Z,82.10
2017-12-05T23:05:21.398Z,82.00
2017-12-05T23:07:47.603Z,82.20
2017-12-05T23:10:15.075Z,82.40
2017-12-05T23:12:42.188Z,82.40
2017-12-05T23:15:08.444Z,82.40
2017-12-05T23:17:34.648Z,82.20
2017-12-05T23:20:00.892Z,81.70
2017-12-05T23:22:27.114Z,82.00
2017-12-05T23:24:53.596Z,82.20
2017-12-05T23:27:19.817Z,82.20
2017-12-05T23:29:47.344Z,82.00
2017-12-05T23:32:13.937Z,81.80
2017-12-05T23:34:40.169Z,81.80
2017-12-05T23:37:06.362Z,81.30
2017-12-05T23:39:32.577Z,80.80
2017-12-05T23:41:58.789Z,80.90
2017-12-05T23:44:24.994Z,81.00
2017-12-05T23:46:52.142Z,80.70
2017-12-05T23:49:18.376Z,80.80
2017-12-05T23:51:44.969Z,80.60
2017-12-05T23:54:11.293Z,80.60
2017-12-05T23:56:37.527Z,80.60
2017-12-05T23:59:03.763Z,80.50
